LEAB/ABC METAR and TAF weather

Enter ICAO airport designator
Station Type Date Time Source
LEAB METAR 2024/06/14 21:00 UTC NOAA

LEAB 142100Z 20005KT 170V240 CAVOK 23/09 Q1015 NOSIG


Station Type Date Time Source
LEAB Decoded METAR 2024/06/14 21:00 UTC NOAA

Albacete / Los Llanos, Spain (LEAB) 38-57N 001-51W 704M
Jun 14, 2024 - 05:00 PM EDT / 2024.06.14 2100 UTC
Wind: from the SSW (200 degrees) at 6 MPH (5 KT) (direction variable):0
Visibility: greater than 7 mile(s):0
Temperature: 73 F (23 C)
Dew Point: 48 F (9 C)
Relative Humidity: 40%
Pressure (altimeter): 29.97 in. Hg (1015 hPa)
ob: LEAB 142100Z 20005KT 170V240 CAVOK 23/09 Q1015 NOSIG
cycle: 21

Station Type Date Time Source
LEAB TAF 2024/06/14 18:27 UTC NOAA